CheckWX is a tool to help pilots better visualize weather data.  It is not intended as a substitute for an official pre-flight weather briefing.

12:29:36 UTC

CYYY TAF
Mont Joli Airport
Mont-Joli, Canada
TAF CYYY 260739Z 2608/2620 30020G30KT P6SM FEW020 BKN050 TEMPO 2608/2620 4SM -SHSN BKN020 RMK NXT FCST BY 261400Z

Mar-26@
08:00 UTC

Mar-26 @ 08:00 UTC

Mar-26@
20:00 UTC

Mar-26 @ 20:00 UTC

TAF CYYY 260739Z 2608/2620 30020G30KT P6SM FEW020 BKN050
Wind
  • 300° at 20 KTS
  • {Gusting to 30 KTS
Cloud Levels
  • Few at 2,000' AGL
  • Broken at 5,000' AGL

Mar-26@
08:00 UTC

Mar-26 @ 08:00 UTC

Mar-26@
20:00 UTC

Mar-26 @ 20:00 UTC

TEMPO 2608/2620 4SM -SHSN BKN020 RMK NXT FCST BY 261400Z

Temporary

Temporary Changes expected for less than half the time period

Conditions
Light Snow
Cloud Levels
  • Broken at 2,000' AGL